Time;durP1;ratioP1;P1;durP2;ratioP2;P2;SDS_P1;SDS_P2;PMS_P1;PMS_P2;Temp;Humidity;BMP_temperature;BMP_pressure;BME280_temperature;BME280_humidity;BME280_pressure;Samples;Min_cycle;Max_cycle;Signal;HPM_P1;HPM_P2
2023/03/03 00:00:06;;;;;;;;;;;;;;;16.71;40.20;93237.72;5084351;28;19934;-90
2023/03/03 00:02:31;;;;;;;;;;;;;;;16.71;40.40;93242.44;5072188;28;19966;-90
2023/03/03 00:04:56;;;;;;;;;;;;;;;16.70;40.78;93243.69;5062046;28;19940;-91
2023/03/03 00:07:22;;;;;;;;;;;;;;;16.70;40.32;93240.97;5067604;28;20019;-91
2023/03/03 00:09:48;;;;;;;;;;;;;;;16.70;40.38;93233.50;5091932;28;19931;-91
2023/03/03 00:12:23;;;;;;;;;;;;;;;16.69;40.38;93236.75;5057368;28;19924;-91
2023/03/03 00:14:48;;;;;;;;;;;;;;;16.69;40.58;93244.94;5082706;28;20419;-91
2023/03/03 00:17:20;;;;;;;;;;;;;;;16.69;40.29;93242.19;5065121;28;20030;-89
2023/03/03 00:19:47;;;;;;;;;;;;;;;16.68;40.13;93241.47;5078203;28;20321;-90
2023/03/03 00:22:14;;;;;;;;;;;;;;;16.70;40.12;93236.25;5061980;28;20479;-90
2023/03/03 00:24:39;;;;;;;;;;;;;;;16.69;40.39;93225.81;5061440;28;19924;-90
2023/03/03 00:27:15;;;;;;;;;;;;;;;16.70;40.66;93238.22;5087046;28;19924;-90
2023/03/03 00:29:43;;;;;;;;;;;;;;;16.68;40.89;93241.47;5063901;28;19924;-89
2023/03/03 00:32:14;;;;;;;;;;;;;;;16.69;40.13;93242.19;5062747;28;19925;-89
2023/03/03 00:34:40;;;;;;;;;;;;;;;16.70;40.77;93246.41;5076549;28;20455;-90
2023/03/03 00:37:10;;;;;;;;;;;;;;;16.70;40.97;93247.16;5067955;28;19973;-90
2023/03/03 00:39:37;;;;;;;;;;;;;;;16.70;40.41;93247.16;5076716;28;20024;-90
2023/03/03 00:42:12;;;;;;;;;;;;;;;16.68;40.33;93257.09;5100202;28;19920;-90
2023/03/03 00:44:40;;;;;;;;;;;;;;;16.69;39.96;93255.84;5061284;28;19932;-91
2023/03/03 00:47:11;;;;;;;;;;;;;;;16.68;40.04;93249.66;5086890;28;19923;-90
2023/03/03 00:49:36;;;;;;;;;;;;;;;16.68;40.18;93257.09;5072146;28;19928;-90
2023/03/03 00:52:02;;;;;;;;;;;;;;;16.68;40.65;93249.66;5079511;28;20395;-89
2023/03/03 00:54:27;;;;;;;;;;;;;;;16.67;40.59;93244.72;5055873;28;19928;-90
2023/03/03 00:56:53;;;;;;;;;;;;;;;16.67;40.22;93248.16;5041790;28;20439;-90
2023/03/03 00:59:18;;;;;;;;;;;;;;;16.68;40.39;93243.44;5035772;28;19928;-90
2023/03/03 01:01:43;;;;;;;;;;;;;;;16.67;40.10;93248.16;5054938;28;19930;-92
2023/03/03 01:04:08;;;;;;;;;;;;;;;16.68;40.51;93249.66;5078804;28;19978;-90
2023/03/03 01:06:34;;;;;;;;;;;;;;;16.68;40.39;93251.63;5089966;28;20385;-90
2023/03/03 01:08:59;;;;;;;;;;;;;;;16.68;40.45;93248.91;5063602;28;19963;-89
2023/03/03 01:11:24;;;;;;;;;;;;;;;16.68;40.66;93240.72;5088216;28;19957;-90
2023/03/03 01:13:50;;;;;;;;;;;;;;;16.68;41.09;93246.16;5056978;28;20110;-90
2023/03/03 01:16:15;;;;;;;;;;;;;;;16.68;40.65;93246.16;5065261;28;20296;-90
2023/03/03 01:18:40;;;;;;;;;;;;;;;16.68;40.47;93241.47;5068599;28;19931;-90
2023/03/03 01:21:06;;;;;;;;;;;;;;;16.70;40.65;93243.69;5048922;28;19928;-89
2023/03/03 01:23:31;;;;;;;;;;;;;;;16.68;40.66;93244.19;5079105;28;20015;-90
2023/03/03 01:25:57;;;;;;;;;;;;;;;16.68;40.27;93237.97;5076891;28;19977;-90
2023/03/03 01:28:22;;;;;;;;;;;;;;;16.67;40.27;93231.06;5049580;28;19932;-89
2023/03/03 01:30:47;;;;;;;;;;;;;;;16.67;40.61;93231.78;5096453;28;20282;-90
2023/03/03 01:33:12;;;;;;;;;;;;;;;16.68;40.46;93232.53;5067070;28;19924;-91
2023/03/03 01:35:42;;;;;;;;;;;;;;;16.67;40.72;93239.97;5068821;28;20382;-90
2023/03/03 01:38:07;;;;;;;;;;;;;;;16.66;40.90;93226.84;5058951;28;19920;-90
2023/03/03 01:40:32;;;;;;;;;;;;;;;16.67;40.28;93233.81;5080795;28;20932;-90
2023/03/03 01:42:58;;;;;;;;;;;;;;;16.66;40.55;93235.03;5077428;28;20377;-90
2023/03/03 01:45:24;;;;;;;;;;;;;;;16.67;40.72;93236.53;5073845;28;19931;-92
2023/03/03 01:47:49;;;;;;;;;;;;;;;16.65;40.63;93228.84;5051047;28;19979;-90
2023/03/03 01:50:17;;;;;;;;;;;;;;;16.67;40.87;93231.06;5080706;28;19968;-89
2023/03/03 01:52:42;;;;;;;;;;;;;;;16.66;40.67;93232.31;5064751;28;20193;-90
2023/03/03 01:55:14;;;;;;;;;;;;;;;16.65;40.90;93228.84;5068433;28;20421;-89
2023/03/03 01:57:39;;;;;;;;;;;;;;;16.66;40.68;93229.59;5052587;28;19928;-90
2023/03/03 02:00:05;;;;;;;;;;;;;;;16.66;40.66;93233.06;5070427;28;19931;-91
2023/03/03 02:02:30;;;;;;;;;;;;;;;16.66;41.15;93224.88;5064513;28;19924;-90
2023/03/03 02:04:56;;;;;;;;;;;;;;;16.66;40.43;93241.25;5056819;28;19925;-89
2023/03/03 02:07:21;;;;;;;;;;;;;;;16.65;41.43;93236.28;5068150;28;20281;-90
2023/03/03 02:09:51;;;;;;;;;;;;;;;16.65;40.99;93239.75;5039495;28;20019;-90
2023/03/03 02:12:17;;;;;;;;;;;;;;;16.65;40.52;93234.31;5048643;28;19920;-94
2023/03/03 02:14:42;;;;;;;;;;;;;;;16.65;41.04;93236.28;5066451;28;20282;-90
2023/03/03 02:17:07;;;;;;;;;;;;;;;16.65;40.53;93239.75;5062593;28;20376;-89
2023/03/03 02:19:36;;;;;;;;;;;;;;;16.65;40.73;93242.50;5074567;28;19928;-90
2023/03/03 02:22:01;;;;;;;;;;;;;;;16.64;40.74;93238.28;5072573;28;19974;-90
2023/03/03 02:24:27;;;;;;;;;;;;;;;16.65;40.59;93233.56;5067600;28;19932;-90
2023/03/03 02:26:53;;;;;;;;;;;;;;;16.64;40.95;93232.06;5062930;28;20014;-91
2023/03/03 02:29:18;;;;;;;;;;;;;;;16.63;40.94;93233.28;5075635;28;20351;-90
2023/03/03 02:31:43;;;;;;;;;;;;;;;16.64;40.83;93221.16;5091566;28;19928;-90
2023/03/03 02:34:08;;;;;;;;;;;;;;;16.65;40.70;93222.63;5063251;28;19928;-90
2023/03/03 02:36:34;;;;;;;;;;;;;;;16.64;41.01;93226.63;5055033;28;19924;-90
2023/03/03 02:39:00;;;;;;;;;;;;;;;16.63;40.83;93223.16;5067263;28;19928;-90
2023/03/03 02:41:27;;;;;;;;;;;;;;;16.64;40.97;93221.16;5075294;28;19929;-89
2023/03/03 02:43:56;;;;;;;;;;;;;;;16.64;40.70;93224.63;5054856;28;20472;-90
2023/03/03 02:46:21;;;;;;;;;;;;;;;16.64;41.01;93227.34;5049815;28;19928;-90
2023/03/03 02:48:46;;;;;;;;;;;;;;;16.62;40.95;93227.09;5043110;28;19935;-90
2023/03/03 02:51:11;;;;;;;;;;;;;;;16.65;40.81;93237.03;5060503;28;20324;-90
2023/03/03 02:53:37;;;;;;;;;;;;;;;16.65;40.82;93231.56;5057919;28;19935;-90
2023/03/03 02:56:03;;;;;;;;;;;;;;;16.65;40.76;93222.63;5040459;28;19928;-90
2023/03/03 02:58:28;;;;;;;;;;;;;;;16.64;40.87;93219.16;5066597;28;19925;-91
2023/03/03 03:00:54;;;;;;;;;;;;;;;16.64;41.04;93218.44;5063764;28;19997;-91
2023/03/03 03:03:19;;;;;;;;;;;;;;;16.63;40.69;93219.63;5057166;28;19928;-89
2023/03/03 03:05:44;;;;;;;;;;;;;;;16.59;40.79;93221.88;5056490;28;19928;-89
2023/03/03 03:08:10;;;;;;;;;;;;;;;16.62;40.85;93213.44;5058412;28;19939;-90
2023/03/03 03:10:35;;;;;;;;;;;;;;;16.60;41.08;93223.38;5052328;28;19925;-90
2023/03/03 03:13:00;;;;;;;;;;;;;;;16.60;40.91;93215.19;5047293;28;19920;-89
2023/03/03 03:15:25;;;;;;;;;;;;;;;16.60;41.00;93221.38;5059700;28;19920;-90
2023/03/03 03:17:51;;;;;;;;;;;;;;;16.61;40.94;93216.66;5067229;28;20381;-89
2023/03/03 03:20:17;;;;;;;;;;;;;;;16.62;41.14;93224.34;5056163;28;19928;-90
2023/03/03 03:22:42;;;;;;;;;;;;;;;16.63;40.81;93225.09;5064941;28;19965;-90
2023/03/03 03:25:07;;;;;;;;;;;;;;;16.61;41.11;93213.94;5062702;28;19924;-90
2023/03/03 03:27:32;;;;;;;;;;;;;;;16.61;40.66;93214.69;5049473;28;20017;-89
2023/03/03 03:29:58;;;;;;;;;;;;;;;16.63;40.78;93217.69;5059485;28;20229;-90
2023/03/03 03:32:23;;;;;;;;;;;;;;;16.63;40.70;93219.63;5100514;28;19931;-90
2023/03/03 03:34:48;;;;;;;;;;;;;;;16.61;41.02;93217.41;5076068;28;19924;-89
2023/03/03 03:37:14;;;;;;;;;;;;;;;16.63;41.01;93228.59;5067592;28;19987;-90
2023/03/03 03:39:39;;;;;;;;;;;;;;;16.61;40.79;93222.13;5060278;28;20348;-90
2023/03/03 03:42:04;;;;;;;;;;;;;;;16.61;41.04;93222.13;5059493;28;19924;-90
2023/03/03 03:44:30;;;;;;;;;;;;;;;16.61;41.18;93239.25;5048329;28;19925;-90
2023/03/03 03:46:55;;;;;;;;;;;;;;;16.58;41.05;93239.50;5059136;28;20004;-90
2023/03/03 03:49:20;;;;;;;;;;;;;;;16.59;41.23;93238.25;5058085;28;20385;-90
2023/03/03 03:51:45;;;;;;;;;;;;;;;16.61;41.30;93246.69;5044675;28;19994;-89
2023/03/03 03:54:11;;;;;;;;;;;;;;;16.60;41.19;93245.94;5060241;28;19931;-89
2023/03/03 03:56:36;;;;;;;;;;;;;;;16.62;41.24;93237.25;5082911;28;19929;-90
2023/03/03 03:59:01;;;;;;;;;;;;;;;16.63;41.17;93246.94;5066196;28;19986;-90
2023/03/03 04:01:27;;;;;;;;;;;;;;;16.62;41.33;93240.72;5066013;28;19931;-90
2023/03/03 04:03:52;;;;;;;;;;;;;;;16.63;40.85;93233.28;5070854;28;19955;-90
2023/03/03 04:06:17;;;;;;;;;;;;;;;16.61;41.38;93236.50;5060621;28;19923;-90
2023/03/03 04:08:42;;;;;;;;;;;;;;;16.62;41.38;93232.53;5057496;28;19934;-89
2023/03/03 04:11:08;;;;;;;;;;;;;;;16.61;41.02;93250.16;5052246;28;19924;-90
2023/03/03 04:13:34;;;;;;;;;;;;;;;16.61;40.91;93247.44;5047961;28;19920;-90
2023/03/03 04:15:59;;;;;;;;;;;;;;;16.63;41.16;93246.94;5083047;28;20008;-90
2023/03/03 04:18:25;;;;;;;;;;;;;;;16.63;40.89;93244.19;5042531;28;19916;-90
2023/03/03 04:20:51;;;;;;;;;;;;;;;16.63;41.03;93244.97;5058316;28;19976;-91
2023/03/03 04:23:18;;;;;;;;;;;;;;;16.62;41.05;93246.19;5041895;28;19924;-90
2023/03/03 04:25:44;;;;;;;;;;;;;;;16.60;41.08;93242.47;5057989;28;20007;-89
2023/03/03 04:28:12;;;;;;;;;;;;;;;16.60;41.50;93245.94;5072022;28;19929;-90
2023/03/03 04:30:37;;;;;;;;;;;;;;;16.59;40.97;93244.47;5058534;28;19933;-91
2023/03/03 04:33:02;;;;;;;;;;;;;;;16.60;41.38;93245.22;5048761;28;19921;-89
2023/03/03 04:35:27;;;;;;;;;;;;;;;16.62;41.70;93245.44;5041711;28;19928;-90
2023/03/03 04:37:53;;;;;;;;;;;;;;;16.61;41.02;93241.22;5071088;28;19920;-90
2023/03/03 04:40:18;;;;;;;;;;;;;;;16.61;41.39;93246.69;5081549;28;19948;-89
2023/03/03 04:42:43;;;;;;;;;;;;;;;16.58;41.33;93245.72;5056451;28;20018;-89
2023/03/03 04:45:09;;;;;;;;;;;;;;;16.59;41.30;93241.00;5066968;28;19999;-91
2023/03/03 04:47:34;;;;;;;;;;;;;;;16.60;41.46;93234.28;5063506;28;19927;-88
2023/03/03 04:49:59;;;;;;;;;;;;;;;16.60;41.48;93237.75;5050200;28;19932;-90
2023/03/03 04:52:25;;;;;;;;;;;;;;;16.60;41.16;93239.75;5060821;28;19931;-89
2023/03/03 04:54:50;;;;;;;;;;;;;;;16.60;41.35;93240.50;5048761;28;19978;-90
2023/03/03 04:57:15;;;;;;;;;;;;;;;16.61;41.17;93246.69;5075150;28;20023;-90
2023/03/03 04:59:40;;;;;;;;;;;;;;;16.59;41.30;93246.44;5053421;28;20393;-91
2023/03/03 05:02:05;;;;;;;;;;;;;;;16.60;41.30;93242.47;5057092;28;19933;-89
2023/03/03 05:04:31;;;;;;;;;;;;;;;16.59;41.43;93244.47;5059182;28;19931;-90
2023/03/03 05:06:57;;;;;;;;;;;;;;;16.58;41.13;93245.72;5042192;28;20452;-90
2023/03/03 05:09:22;;;;;;;;;;;;;;;16.59;41.20;93244.47;5058401;28;19932;-90
2023/03/03 05:11:47;;;;;;;;;;;;;;;16.59;41.52;93252.66;5079814;28;19935;-90
2023/03/03 05:14:12;;;;;;;;;;;;;;;16.58;41.54;93253.16;5060240;28;19984;-90
2023/03/03 05:16:38;;;;;;;;;;;;;;;16.59;41.55;93252.66;5065389;28;20505;-90
2023/03/03 05:19:03;;;;;;;;;;;;;;;16.59;41.49;93246.44;5071482;28;19951;-89
2023/03/03 05:21:28;;;;;;;;;;;;;;;16.58;41.33;93253.16;5055590;28;19925;-90
2023/03/03 05:23:53;;;;;;;;;;;;;;;16.59;42.42;93255.38;5063645;28;19920;-89
2023/03/03 05:26:19;;;;;;;;;;;;;;;16.60;43.59;93248.69;5047090;28;19928;-90
2023/03/03 05:28:44;;;;;;;;;;;;;;;16.59;42.00;93257.38;5073420;28;20011;-89
2023/03/03 05:31:09;;;;;;;;;;;;;;;16.58;41.99;93262.06;5060703;28;19924;-90
2023/03/03 05:33:34;;;;;;;;;;;;;;;16.59;41.40;93266.28;5065836;28;19920;-89
2023/03/03 05:36:00;;;;;;;;;;;;;;;16.60;41.69;93273.25;5060687;28;19928;-89
2023/03/03 05:38:25;;;;;;;;;;;;;;;16.61;41.59;93268.53;5054980;28;19947;-90
2023/03/03 05:40:50;;;;;;;;;;;;;;;16.60;41.36;93269.75;5056448;28;20371;-90
2023/03/03 05:43:15;;;;;;;;;;;;;;;16.60;41.69;93267.78;5062222;28;19944;-89
2023/03/03 05:45:41;;;;;;;;;;;;;;;16.60;41.51;93273.25;5070359;28;19937;-89
2023/03/03 05:48:06;;;;;;;;;;;;;;;16.59;41.52;93273.75;5055376;28;19920;-90
2023/03/03 05:50:31;;;;;;;;;;;;;;;16.60;42.38;93280.69;5057308;28;19924;-90
2023/03/03 05:52:57;;;;;;;;;;;;;;;16.61;41.48;93282.16;5076852;28;20525;-90
2023/03/03 05:55:22;;;;;;;;;;;;;;;16.62;41.23;93284.41;5043482;28;19928;-90
2023/03/03 05:57:47;;;;;;;;;;;;;;;16.61;41.74;93282.91;5050844;28;19928;-90
2023/03/03 06:00:13;;;;;;;;;;;;;;;16.63;41.61;93275.00;5049463;28;19924;-90
2023/03/03 06:02:39;;;;;;;;;;;;;;;16.63;41.55;93279.69;5059872;28;19924;-90
2023/03/03 06:05:07;;;;;;;;;;;;;;;16.63;41.61;93276.94;5055557;28;20308;-90
2023/03/03 06:07:32;;;;;;;;;;;;;;;16.62;41.24;93292.59;5050004;28;19947;-91
2023/03/03 06:09:57;;;;;;;;;;;;;;;16.63;41.43;93288.63;5075756;28;20337;-91
2023/03/03 06:12:24;;;;;;;;;;;;;;;16.62;41.47;93286.38;5056365;28;19925;-91
2023/03/03 06:14:50;;;;;;;;;;;;;;;16.64;41.30;93294.84;5088148;28;19928;-91
2023/03/03 06:17:16;;;;;;;;;;;;;;;16.64;41.62;93303.03;5056327;28;19947;-91
2023/03/03 06:19:41;;;;;;;;;;;;;;;16.63;41.78;93302.28;5065759;28;19929;-90
2023/03/03 06:22:06;;;;;;;;;;;;;;;16.66;41.43;93297.81;5057426;28;19930;-90
2023/03/03 06:24:32;;;;;;;;;;;;;;;16.65;41.29;93299.06;5074650;28;19924;-90
2023/03/03 06:26:57;;;;;;;;;;;;;;;16.63;41.50;93310.47;5052851;28;20320;-91
2023/03/03 06:29:22;;;;;;;;;;;;;;;16.65;41.89;93308.00;5059293;28;20015;-91
2023/03/03 06:31:48;;;;;;;;;;;;;;;16.66;41.48;93311.47;5055632;28;19925;-90
2023/03/03 06:34:13;;;;;;;;;;;;;;;16.67;41.64;93318.41;5049251;28;19946;-91
2023/03/03 06:36:38;;;;;;;;;;;;;;;16.67;41.22;93315.69;5062301;28;19924;-90
2023/03/03 06:39:03;;;;;;;;;;;;;;;16.67;41.24;93323.88;5039855;28;19931;-90
2023/03/03 06:41:29;;;;;;;;;;;;;;;16.69;41.45;93318.63;5042034;28;19957;-91
2023/03/03 06:44:02;;;;;;;;;;;;;;;16.69;41.57;93326.81;5048265;28;20001;-90
2023/03/03 06:46:28;;;;;;;;;;;;;;;16.71;41.52;93319.59;5077301;28;19933;-91
2023/03/03 06:48:53;;;;;;;;;;;;;;;16.73;41.23;93328.03;5094820;28;19943;-91
2023/03/03 06:51:23;;;;;;;;;;;;;;;16.73;41.38;93333.50;5061145;28;19928;-91
2023/03/03 06:53:51;;;;;;;;;;;;;;;16.75;41.23;93322.81;5072630;28;19970;-91
2023/03/03 06:56:17;;;;;;;;;;;;;;;16.76;40.88;93335.22;5043195;28;19931;-90
2023/03/03 06:58:42;;;;;;;;;;;;;;;16.81;41.47;93330.25;5058104;28;19973;-90
2023/03/03 07:01:12;;;;;;;;;;;;;;;16.83;41.05;93333.22;5046939;28;19999;-92
2023/03/03 07:03:37;;;;;;;;;;;;;;;16.85;41.45;93328.00;5049142;28;19970;-94
2023/03/03 07:06:07;;;;;;;;;;;;;;;16.84;41.53;93330.00;5045450;28;19925;-89
2023/03/03 07:08:32;;;;;;;;;;;;;;;16.86;41.12;93338.44;5084531;28;19935;-89
2023/03/03 07:11:00;;;;;;;;;;;;;;;16.88;41.09;93338.69;5080224;28;19920;-89
2023/03/03 07:13:26;;;;;;;;;;;;;;;16.90;41.27;93340.88;5072970;28;20396;-89
2023/03/03 07:15:51;;;;;;;;;;;;;;;16.90;41.00;93336.16;5068386;28;19933;-91
2023/03/03 07:18:28;;;;;;;;;;;;;;;16.91;41.26;93345.09;5062447;28;20651;-91
2023/03/03 07:20:54;;;;;;;;;;;;;;;16.91;41.08;93345.09;5061389;28;19974;-92
2023/03/03 07:23:26;;;;;;;;;;;;;;;16.94;41.39;93349.56;5052602;28;19956;-89
2023/03/03 07:25:51;;;;;;;;;;;;;;;16.96;41.06;93345.09;5064409;28;19931;-90
2023/03/03 07:28:19;;;;;;;;;;;;;;;16.98;41.17;93353.53;5049597;28;19920;-92
2023/03/03 07:30:44;;;;;;;;;;;;;;;16.99;41.06;93357.72;5071167;28;20220;-90
2023/03/03 07:33:22;;;;;;;;;;;;;;;16.99;40.92;93346.81;5071493;28;19997;-89
2023/03/03 07:35:47;;;;;;;;;;;;;;;17.00;41.16;93361.22;5071225;28;19928;-91
2023/03/03 07:38:15;;;;;;;;;;;;;;;17.01;41.50;93359.97;5053792;28;20363;-89
2023/03/03 07:40:41;;;;;;;;;;;;;;;17.00;41.30;93351.03;5059507;28;19964;-92
2023/03/03 07:43:15;;;;;;;;;;;;;;;17.00;41.60;93361.94;5066815;28;19955;-91
2023/03/03 07:45:40;;;;;;;;;;;;;;;16.99;41.85;93357.72;5057696;28;19975;-90
2023/03/03 07:48:12;;;;;;;;;;;;;;;17.02;41.51;93353.25;5057308;28;19959;-89
2023/03/03 07:50:38;;;;;;;;;;;;;;;17.02;41.97;93343.09;5043897;28;19925;-90
2023/03/03 07:53:05;;;;;;;;;;;;;;;17.04;41.54;93361.69;5056688;28;20369;-90
2023/03/03 07:55:30;;;;;;;;;;;;;;;17.05;41.61;93350.28;5055756;28;19955;-89
2023/03/03 07:57:56;;;;;;;;;;;;;;;17.05;41.45;93350.28;5065890;28;19990;-93
2023/03/03 08:00:27;;;;;;;;;;;;;;;17.07;41.46;93344.31;5061540;28;20369;-92
2023/03/03 08:02:56;;;;;;;;;;;;;;;17.08;41.64;93357.47;5054042;28;19927;-89
2023/03/03 08:05:21;;;;;;;;;;;;;;;17.09;41.43;93355.47;5058210;28;20384;-88
2023/03/03 08:07:48;;;;;;;;;;;;;;;17.08;41.89;93349.28;5072055;28;20138;-90
2023/03/03 08:10:26;;;;;;;;;;;;;;;17.11;41.31;93363.88;5041007;28;19972;-90
2023/03/03 08:12:51;;;;;;;;;;;;;;;17.13;41.79;93362.13;5060251;28;19932;-90
2023/03/03 08:15:23;;;;;;;;;;;;;;;17.14;41.62;93360.88;5051923;28;20386;-91
2023/03/03 08:17:49;;;;;;;;;;;;;;;17.17;41.65;93370.06;5045594;28;20337;-91
2023/03/03 08:20:29;;;;;;;;;;;;;;;17.16;41.73;93357.66;5076543;28;20573;-90
2023/03/03 08:22:55;;;;;;;;;;;;;;;17.16;41.40;93365.84;5078089;28;20368;-91
2023/03/03 08:25:22;;;;;;;;;;;;;;;17.15;41.40;93369.81;5060407;28;19924;-91
2023/03/03 08:27:48;;;;;;;;;;;;;;;17.16;41.06;93357.66;5059095;28;20445;-91
2023/03/03 08:30:14;;;;;;;;;;;;;;;17.18;41.51;93357.91;5067265;28;19958;-90
2023/03/03 08:32:39;;;;;;;;;;;;;;;17.18;41.39;93365.34;5062109;28;19920;-90
2023/03/03 08:35:04;;;;;;;;;;;;;;;17.15;41.72;93353.44;5066581;28;19928;-92
2023/03/03 08:37:29;;;;;;;;;;;;;;;17.17;41.51;93364.59;5055287;28;20050;-93
2023/03/03 08:39:55;;;;;;;;;;;;;;;17.18;41.44;93368.81;5050869;28;19984;-92
2023/03/03 08:42:20;;;;;;;;;;;;;;;17.21;41.58;93367.06;5047702;28;19928;-92
2023/03/03 08:44:45;;;;;;;;;;;;;;;17.19;42.04;93364.84;5050784;28;19985;-90
2023/03/03 08:47:10;;;;;;;;;;;;;;;17.19;41.79;93370.31;5046502;28;20515;-90
2023/03/03 08:49:36;;;;;;;;;;;;;;;17.19;42.03;93373.03;5086229;28;19939;-89
2023/03/03 08:52:01;;;;;;;;;;;;;;;17.19;41.71;93366.84;5037537;28;20010;-93
2023/03/03 08:54:27;;;;;;;;;;;;;;;17.20;41.63;93369.06;5040622;28;19983;-92
2023/03/03 08:56:52;;;;;;;;;;;;;;;17.18;41.83;93368.81;5076225;28;20304;-89
2023/03/03 08:59:18;;;;;;;;;;;;;;;17.19;41.61;93370.31;5069465;28;20015;-88
2023/03/03 09:01:44;;;;;;;;;;;;;;;17.20;42.26;93368.31;5046787;28;19928;-91
2023/03/03 09:04:09;;;;;;;;;;;;;;;17.20;41.85;93369.06;5047428;28;20452;-93
2023/03/03 09:06:35;;;;;;;;;;;;;;;17.21;41.42;93367.81;5066205;28;19966;-89
2023/03/03 09:09:00;;;;;;;;;;;;;;;17.23;42.04;93368.06;5044796;28;19962;-90
2023/03/03 09:11:26;;;;;;;;;;;;;;;17.25;41.75;93375.75;5065387;28;20292;-90
2023/03/03 09:13:53;;;;;;;;;;;;;;;17.24;41.44;93375.00;5059341;28;19948;-93
2023/03/03 09:16:21;;;;;;;;;;;;;;;17.23;41.23;93368.06;5070048;28;19974;-89
2023/03/03 09:18:46;;;;;;;;;;;;;;;17.25;41.50;93364.81;5060565;28;19931;-89
2023/03/03 09:21:22;;;;;;;;;;;;;;;17.24;41.19;93377.75;5051352;28;19928;-90
2023/03/03 09:23:52;;;;;;;;;;;;;;;17.24;41.43;93382.47;5071093;28;20006;-89
2023/03/03 09:26:26;;;;;;;;;;;;;;;17.24;41.16;93379.72;5047480;28;20242;-90
2023/03/03 09:28:52;;;;;;;;;;;;;;;17.22;41.30;93393.16;5038950;28;19928;-87
2023/03/03 09:31:25;;;;;;;;;;;;;;;17.23;41.46;93394.63;5051658;28;19924;-88
2023/03/03 09:33:53;;;;;;;;;;;;;;;17.25;40.95;93400.34;5040275;28;19970;-87
2023/03/03 09:36:25;;;;;;;;;;;;;;;17.25;41.42;93408.53;5045921;28;19923;-87
2023/03/03 09:38:51;;;;;;;;;;;;;;;17.26;41.28;93404.56;5051401;28;20440;-87
2023/03/03 09:41:38;;;;;;;;;;;;;;;17.28;41.65;93402.06;5080564;28;19924;-89
2023/03/03 09:44:11;;;;;;;;;;;;;;;17.27;41.59;93406.06;5037261;28;19920;-87
2023/03/03 09:46:39;;;;;;;;;;;;;;;17.27;41.28;93414.25;5060004;28;19932;-87
2023/03/03 09:49:07;;;;;;;;;;;;;;;17.28;41.15;93415.72;5050215;28;19955;-87
2023/03/03 09:51:39;;;;;;;;;;;;;;;17.26;41.62;93405.31;5064871;28;19928;-87
2023/03/03 09:54:07;;;;;;;;;;;;;;;17.28;41.22;93404.81;5062801;28;19921;-92
2023/03/03 09:56:43;;;;;;;;;;;;;;;17.27;41.34;93420.44;5066946;28;19924;-87
2023/03/03 09:59:14;;;;;;;;;;;;;;;17.28;41.39;93405.56;5049773;28;19928;-87
2023/03/03 10:01:40;;;;;;;;;;;;;;;17.26;41.17;93412.75;5063807;28;19928;-88
2023/03/03 10:04:18;;;;;;;;;;;;;;;17.25;41.60;93417.47;5071371;28;20388;-88
2023/03/03 10:06:49;;;;;;;;;;;;;;;17.25;41.49;93414.00;5088505;28;19924;-88
2023/03/03 10:09:33;;;;;;;;;;;;;;;17.24;41.76;93412.50;5075782;28;19924;-88
2023/03/03 10:12:02;;;;;;;;;;;;;;;17.21;41.45;93408.78;5074077;28;19935;-89
2023/03/03 10:14:33;;;;;;;;;;;;;;;17.22;41.53;93409.53;5051889;28;19936;-89
2023/03/03 10:17:02;;;;;;;;;;;;;;;17.23;41.61;93400.09;5075187;28;20010;-88
2023/03/03 10:19:29;;;;;;;;;;;;;;;17.25;41.41;93416.75;5062671;28;19928;-88
2023/03/03 10:22:04;;;;;;;;;;;;;;;17.24;41.56;93405.06;5088348;28;19935;-87
2023/03/03 10:24:30;;;;;;;;;;;;;;;17.23;41.44;93406.31;5072374;28;20027;-88
2023/03/03 10:26:58;;;;;;;;;;;;;;;17.24;41.39;93401.59;5073782;28;20379;-88
2023/03/03 10:29:28;;;;;;;;;;;;;;;17.21;41.58;93397.13;5094133;28;20441;-89
2023/03/03 10:32:12;;;;;;;;;;;;;;;17.20;41.76;93398.38;5084710;28;19924;-89
2023/03/03 10:34:52;;;;;;;;;;;;;;;17.22;41.75;93404.06;5097476;28;19972;-89
2023/03/03 10:37:21;;;;;;;;;;;;;;;17.24;41.41;93404.31;5112587;28;19932;-88
2023/03/03 10:40:05;;;;;;;;;;;;;;;17.26;41.41;93401.84;5084165;28;20381;-88
2023/03/03 10:42:39;;;;;;;;;;;;;;;17.25;41.48;93398.34;5080105;28;19935;-88
2023/03/03 10:45:10;;;;;;;;;;;;;;;17.25;41.36;93397.63;5099120;28;19923;-88
2023/03/03 10:47:36;;;;;;;;;;;;;;;17.23;41.50;93403.56;5094995;28;19928;-88
2023/03/03 10:50:06;;;;;;;;;;;;;;;17.21;41.60;93400.59;5094005;28;19924;-88
2023/03/03 10:52:34;;;;;;;;;;;;;;;17.22;41.44;93393.16;5085846;28;19934;-89
2023/03/03 10:55:00;;;;;;;;;;;;;;;17.23;41.43;93397.38;5100512;28;19924;-87
2023/03/03 10:57:41;;;;;;;;;;;;;;;17.23;41.38;93381.72;5094962;28;19978;-88
2023/03/03 11:00:06;;;;;;;;;;;;;;;17.22;41.36;93391.16;5111399;28;19973;-89
2023/03/03 11:02:37;;;;;;;;;;;;;;;17.22;41.79;93382.22;5102877;28;19920;-89
2023/03/03 11:05:05;;;;;;;;;;;;;;;17.21;41.82;93386.19;5100253;28;19928;-89
2023/03/03 11:07:33;;;;;;;;;;;;;;;17.21;41.71;93380.75;5101965;28;19924;-88
2023/03/03 11:10:08;;;;;;;;;;;;;;;17.19;41.73;93394.91;5089197;28;20055;-88
2023/03/03 11:12:36;;;;;;;;;;;;;;;17.20;41.66;93390.91;5088369;28;19931;-88
2023/03/03 11:15:20;;;;;;;;;;;;;;;17.21;41.39;93399.84;5100489;28;20028;-88
2023/03/03 11:18:04;;;;;;;;;;;;;;;17.23;41.21;93398.13;5108175;27;19928;-88
2023/03/03 11:20:44;;;;;;;;;;;;;;;17.22;41.39;93396.63;5102632;28;19924;-88
2023/03/03 11:23:09;;;;;;;;;;;;;;;17.22;41.66;93390.41;5104116;28;19911;-88
2023/03/03 11:25:41;;;;;;;;;;;;;;;17.23;41.36;93389.91;5102696;28;19919;-89
2023/03/03 11:28:12;;;;;;;;;;;;;;;17.24;41.90;93390.66;5087926;28;20006;-88
2023/03/03 11:30:52;;;;;;;;;;;;;;;17.21;41.59;93388.94;5093985;28;19923;-88
2023/03/03 11:33:35;;;;;;;;;;;;;;;17.21;41.36;93386.19;5078428;28;20017;-88
2023/03/03 11:36:19;;;;;;;;;;;;;;;17.20;41.49;93390.91;5079749;28;20284;-88
2023/03/03 11:38:44;;;;;;;;;;;;;;;17.19;41.50;93388.69;5085709;28;20348;-88
2023/03/03 11:41:19;;;;;;;;;;;;;;;17.18;41.44;93385.22;5099244;28;19974;-88
2023/03/03 11:43:46;;;;;;;;;;;;;;;17.18;41.45;93373.53;5079236;28;20019;-88
2023/03/03 11:46:15;;;;;;;;;;;;;;;17.17;41.71;93367.34;5066236;28;19934;-88
2023/03/03 11:48:48;;;;;;;;;;;;;;;17.20;41.58;93365.59;5075675;28;20097;-88
2023/03/03 11:51:14;;;;;;;;;;;;;;;17.19;41.96;93378.50;5096582;28;19928;-88
2023/03/03 11:53:39;;;;;;;;;;;;;;;17.21;41.59;93369.81;5074951;28;19970;-88
2023/03/03 11:56:23;;;;;;;;;;;;;;;17.22;41.77;93366.56;5083114;28;19924;-88
2023/03/03 11:59:07;;;;;;;;;;;;;;;17.21;41.65;93369.81;5098077;27;19951;-88
2023/03/03 12:01:35;;;;;;;;;;;;;;;17.22;41.99;93366.56;5093600;27;19959;-88
2023/03/03 12:04:05;;;;;;;;;;;;;;;17.23;41.65;93367.31;5083789;28;19920;-88
2023/03/03 12:06:45;;;;;;;;;;;;;;;17.23;41.78;93370.78;5070365;28;19924;-88
2023/03/03 12:09:29;;;;;;;;;;;;;;;17.23;41.92;93370.06;5103881;28;19928;-88
2023/03/03 12:11:59;;;;;;;;;;;;;;;17.22;41.66;93361.13;5092898;28;19920;-88
2023/03/03 12:14:29;;;;;;;;;;;;;;;17.24;41.97;93361.34;5079633;28;20235;-89
2023/03/03 12:16:54;;;;;;;;;;;;;;;17.24;41.96;93364.09;5080196;28;20453;-88
2023/03/03 12:19:19;;;;;;;;;;;;;;;17.24;41.83;93360.59;5095367;28;20022;-88
2023/03/03 12:21:53;;;;;;;;;;;;;;;17.25;41.68;93362.09;5089873;28;20052;-88
2023/03/03 12:24:34;;;;;;;;;;;;;;;17.24;41.50;93355.16;5090357;28;19920;-88
2023/03/03 12:27:08;;;;;;;;;;;;;;;17.24;42.01;93355.16;5106794;28;19932;-88
2023/03/03 12:29:33;;;;;;;;;;;;;;;17.24;41.84;93358.63;5079355;28;20281;-88
2023/03/03 12:32:01;;;;;;;;;;;;;;;17.24;41.74;93350.44;5080386;28;20023;-88
2023/03/03 12:34:27;;;;;;;;;;;;;;;17.25;41.67;93348.44;5060238;28;19921;-88
2023/03/03 12:36:52;;;;;;;;;;;;;;;17.22;41.51;93347.47;5084606;28;20440;-88
2023/03/03 12:39:29;;;;;;;;;;;;;;;17.21;41.92;93350.69;5109300;28;19920;-88
2023/03/03 12:41:57;;;;;;;;;;;;;;;17.21;41.63;93351.44;5086363;28;19971;-88
2023/03/03 12:44:24;;;;;;;;;;;;;;;17.20;41.87;93349.19;5108695;28;19931;-87
2023/03/03 12:47:07;;;;;;;;;;;;;;;17.20;42.00;93347.22;5076584;28;20022;-88
2023/03/03 12:49:37;;;;;;;;;;;;;;;17.20;41.60;93343.75;5092017;28;19920;-88